sensor_id;sensor_type;location;lat;lon;timestamp;P1;durP1;ratioP1;P2;durP2;ratioP2
21472;SDS011;10898;48.072;11.682;2024-01-10T00:00:32;28.52;;;16.65;;
21472;SDS011;10898;48.072;11.682;2024-01-10T00:02:34;31.48;;;17.48;;
21472;SDS011;10898;48.072;11.682;2024-01-10T00:04:36;31.63;;;18.20;;
21472;SDS011;10898;48.072;11.682;2024-01-10T00:06:37;28.63;;;16.45;;
21472;SDS011;10898;48.072;11.682;2024-01-10T00:08:39;30.55;;;16.75;;
21472;SDS011;10898;48.072;11.682;2024-01-10T00:10:41;31.08;;;16.80;;
21472;SDS011;10898;48.072;11.682;2024-01-10T00:12:43;32.75;;;18.80;;
21472;SDS011;10898;48.072;11.682;2024-01-10T00:16:47;31.38;;;16.10;;
21472;SDS011;10898;48.072;11.682;2024-01-10T00:20:51;32.85;;;15.93;;
21472;SDS011;10898;48.072;11.682;2024-01-10T00:22:56;34.38;;;17.55;;
21472;SDS011;10898;48.072;11.682;2024-01-10T00:27:00;31.17;;;16.63;;
21472;SDS011;10898;48.072;11.682;2024-01-10T00:29:02;34.15;;;16.63;;
21472;SDS011;10898;48.072;11.682;2024-01-10T00:31:05;32.42;;;16.58;;
21472;SDS011;10898;48.072;11.682;2024-01-10T00:33:07;32.92;;;17.30;;
21472;SDS011;10898;48.072;11.682;2024-01-10T00:35:09;30.40;;;16.73;;
21472;SDS011;10898;48.072;11.682;2024-01-10T00:37:12;34.53;;;17.70;;
21472;SDS011;10898;48.072;11.682;2024-01-10T00:39:14;37.83;;;17.63;;
21472;SDS011;10898;48.072;11.682;2024-01-10T00:41:16;38.95;;;19.02;;
21472;SDS011;10898;48.072;11.682;2024-01-10T00:43:18;39.55;;;19.38;;
21472;SDS011;10898;48.072;11.682;2024-01-10T00:45:20;37.08;;;19.08;;
21472;SDS011;10898;48.072;11.682;2024-01-10T00:47:22;40.22;;;17.15;;
21472;SDS011;10898;48.072;11.682;2024-01-10T00:49:24;31.48;;;16.05;;
21472;SDS011;10898;48.072;11.682;2024-01-10T00:51:26;34.08;;;17.05;;
21472;SDS011;10898;48.072;11.682;2024-01-10T00:53:28;36.28;;;15.07;;
21472;SDS011;10898;48.072;11.682;2024-01-10T00:55:29;34.40;;;16.02;;
21472;SDS011;10898;48.072;11.682;2024-01-10T00:57:31;31.63;;;15.15;;
21472;SDS011;10898;48.072;11.682;2024-01-10T00:59:36;29.92;;;15.02;;
21472;SDS011;10898;48.072;11.682;2024-01-10T01:01:37;32.00;;;16.63;;
21472;SDS011;10898;48.072;11.682;2024-01-10T01:03:39;30.85;;;15.80;;
21472;SDS011;10898;48.072;11.682;2024-01-10T01:05:41;30.85;;;16.30;;
21472;SDS011;10898;48.072;11.682;2024-01-10T01:07:43;33.20;;;16.35;;
21472;SDS011;10898;48.072;11.682;2024-01-10T01:09:45;30.20;;;15.18;;
21472;SDS011;10898;48.072;11.682;2024-01-10T01:11:47;32.75;;;15.68;;
21472;SDS011;10898;48.072;11.682;2024-01-10T01:13:49;34.38;;;16.80;;
21472;SDS011;10898;48.072;11.682;2024-01-10T01:15:51;35.80;;;16.88;;
21472;SDS011;10898;48.072;11.682;2024-01-10T01:17:52;39.50;;;18.15;;
21472;SDS011;10898;48.072;11.682;2024-01-10T01:19:54;39.40;;;18.58;;
21472;SDS011;10898;48.072;11.682;2024-01-10T01:21:56;35.33;;;17.08;;
21472;SDS011;10898;48.072;11.682;2024-01-10T01:23:58;34.15;;;16.73;;
21472;SDS011;10898;48.072;11.682;2024-01-10T01:26:00;41.47;;;18.48;;
21472;SDS011;10898;48.072;11.682;2024-01-10T01:28:01;39.67;;;18.80;;
21472;SDS011;10898;48.072;11.682;2024-01-10T01:30:04;33.95;;;17.33;;
21472;SDS011;10898;48.072;11.682;2024-01-10T01:32:06;35.35;;;16.83;;
21472;SDS011;10898;48.072;11.682;2024-01-10T01:34:08;36.47;;;18.67;;
21472;SDS011;10898;48.072;11.682;2024-01-10T01:36:10;38.88;;;17.58;;
21472;SDS011;10898;48.072;11.682;2024-01-10T01:38:12;37.55;;;17.52;;
21472;SDS011;10898;48.072;11.682;2024-01-10T01:40:14;35.42;;;17.40;;
21472;SDS011;10898;48.072;11.682;2024-01-10T01:42:16;35.17;;;16.63;;
21472;SDS011;10898;48.072;11.682;2024-01-10T01:44:17;38.38;;;18.20;;
21472;SDS011;10898;48.072;11.682;2024-01-10T01:46:19;36.03;;;17.98;;
21472;SDS011;10898;48.072;11.682;2024-01-10T01:48:22;28.88;;;16.00;;
21472;SDS011;10898;48.072;11.682;2024-01-10T01:50:26;35.53;;;17.52;;
21472;SDS011;10898;48.072;11.682;2024-01-10T01:52:29;37.80;;;18.33;;
21472;SDS011;10898;48.072;11.682;2024-01-10T01:54:31;34.65;;;17.55;;
21472;SDS011;10898;48.072;11.682;2024-01-10T01:56:37;36.67;;;18.67;;
21472;SDS011;10898;48.072;11.682;2024-01-10T01:58:40;35.92;;;18.73;;
21472;SDS011;10898;48.072;11.682;2024-01-10T02:00:43;34.72;;;17.48;;
21472;SDS011;10898;48.072;11.682;2024-01-10T02:02:46;34.65;;;18.77;;
21472;SDS011;10898;48.072;11.682;2024-01-10T02:04:50;38.85;;;18.30;;
21472;SDS011;10898;48.072;11.682;2024-01-10T02:08:53;37.00;;;18.15;;
21472;SDS011;10898;48.072;11.682;2024-01-10T02:10:55;40.33;;;19.55;;
21472;SDS011;10898;48.072;11.682;2024-01-10T02:12:57;27.77;;;15.05;;
21472;SDS011;10898;48.072;11.682;2024-01-10T02:14:59;37.38;;;17.80;;
21472;SDS011;10898;48.072;11.682;2024-01-10T02:17:01;33.78;;;16.70;;
21472;SDS011;10898;48.072;11.682;2024-01-10T02:19:16;37.35;;;16.73;;
21472;SDS011;10898;48.072;11.682;2024-01-10T02:21:22;35.42;;;16.95;;
21472;SDS011;10898;48.072;11.682;2024-01-10T02:23:24;36.63;;;18.35;;
21472;SDS011;10898;48.072;11.682;2024-01-10T02:25:26;36.30;;;17.30;;
21472;SDS011;10898;48.072;11.682;2024-01-10T02:27:27;35.95;;;17.88;;
21472;SDS011;10898;48.072;11.682;2024-01-10T02:29:30;34.28;;;16.23;;
21472;SDS011;10898;48.072;11.682;2024-01-10T02:31:32;37.92;;;18.30;;
21472;SDS011;10898;48.072;11.682;2024-01-10T02:33:34;33.42;;;17.52;;
21472;SDS011;10898;48.072;11.682;2024-01-10T02:35:36;33.92;;;17.85;;
21472;SDS011;10898;48.072;11.682;2024-01-10T02:37:38;34.30;;;17.23;;
21472;SDS011;10898;48.072;11.682;2024-01-10T02:39:40;31.80;;;16.00;;
21472;SDS011;10898;48.072;11.682;2024-01-10T02:41:42;32.25;;;16.20;;
21472;SDS011;10898;48.072;11.682;2024-01-10T02:43:43;28.48;;;15.02;;
21472;SDS011;10898;48.072;11.682;2024-01-10T02:45:45;31.40;;;14.95;;
21472;SDS011;10898;48.072;11.682;2024-01-10T02:47:47;34.92;;;16.35;;
21472;SDS011;10898;48.072;11.682;2024-01-10T02:49:49;31.98;;;17.05;;
21472;SDS011;10898;48.072;11.682;2024-01-10T02:51:51;31.13;;;16.60;;
21472;SDS011;10898;48.072;11.682;2024-01-10T02:53:53;34.53;;;16.77;;
21472;SDS011;10898;48.072;11.682;2024-01-10T02:55:54;31.80;;;17.52;;
21472;SDS011;10898;48.072;11.682;2024-01-10T02:57:56;37.22;;;18.90;;
21472;SDS011;10898;48.072;11.682;2024-01-10T02:59:58;37.08;;;17.23;;
21472;SDS011;10898;48.072;11.682;2024-01-10T03:02:00;33.60;;;16.30;;
21472;SDS011;10898;48.072;11.682;2024-01-10T03:04:02;39.50;;;19.08;;
21472;SDS011;10898;48.072;11.682;2024-01-10T03:06:04;35.95;;;17.85;;
21472;SDS011;10898;48.072;11.682;2024-01-10T03:08:06;33.65;;;17.33;;
21472;SDS011;10898;48.072;11.682;2024-01-10T03:12:10;31.95;;;15.63;;
21472;SDS011;10898;48.072;11.682;2024-01-10T03:14:13;34.00;;;15.52;;
21472;SDS011;10898;48.072;11.682;2024-01-10T03:16:15;28.95;;;14.73;;
21472;SDS011;10898;48.072;11.682;2024-01-10T03:18:17;29.60;;;15.73;;
21472;SDS011;10898;48.072;11.682;2024-01-10T03:20:19;31.70;;;16.25;;
21472;SDS011;10898;48.072;11.682;2024-01-10T03:22:20;32.60;;;16.02;;
21472;SDS011;10898;48.072;11.682;2024-01-10T03:24:22;32.72;;;16.10;;
21472;SDS011;10898;48.072;11.682;2024-01-10T03:26:28;34.42;;;17.52;;
21472;SDS011;10898;48.072;11.682;2024-01-10T03:28:31;31.08;;;15.30;;
21472;SDS011;10898;48.072;11.682;2024-01-10T03:30:33;32.88;;;15.48;;
21472;SDS011;10898;48.072;11.682;2024-01-10T03:32:35;32.22;;;14.95;;
21472;SDS011;10898;48.072;11.682;2024-01-10T03:34:37;31.00;;;15.65;;
21472;SDS011;10898;48.072;11.682;2024-01-10T03:36:39;29.05;;;15.07;;
21472;SDS011;10898;48.072;11.682;2024-01-10T03:38:40;27.77;;;14.07;;
21472;SDS011;10898;48.072;11.682;2024-01-10T03:40:42;28.75;;;13.52;;
21472;SDS011;10898;48.072;11.682;2024-01-10T03:42:45;31.23;;;14.13;;
21472;SDS011;10898;48.072;11.682;2024-01-10T03:44:46;31.75;;;14.98;;
21472;SDS011;10898;48.072;11.682;2024-01-10T03:46:48;30.13;;;15.32;;
21472;SDS011;10898;48.072;11.682;2024-01-10T03:48:50;30.65;;;15.52;;
21472;SDS011;10898;48.072;11.682;2024-01-10T03:50:53;28.77;;;14.82;;
21472;SDS011;10898;48.072;11.682;2024-01-10T03:52:55;29.95;;;15.20;;
21472;SDS011;10898;48.072;11.682;2024-01-10T03:54:57;26.55;;;14.18;;
21472;SDS011;10898;48.072;11.682;2024-01-10T03:56:59;29.98;;;15.15;;
21472;SDS011;10898;48.072;11.682;2024-01-10T03:59:01;27.73;;;14.88;;
21472;SDS011;10898;48.072;11.682;2024-01-10T04:01:04;33.13;;;15.70;;
21472;SDS011;10898;48.072;11.682;2024-01-10T04:03:07;30.67;;;14.55;;
21472;SDS011;10898;48.072;11.682;2024-01-10T04:05:09;32.05;;;16.13;;
21472;SDS011;10898;48.072;11.682;2024-01-10T04:07:13;33.33;;;15.88;;
21472;SDS011;10898;48.072;11.682;2024-01-10T04:09:15;33.67;;;15.35;;
21472;SDS011;10898;48.072;11.682;2024-01-10T04:11:17;32.38;;;15.35;;
21472;SDS011;10898;48.072;11.682;2024-01-10T04:13:19;36.55;;;17.50;;
21472;SDS011;10898;48.072;11.682;2024-01-10T04:15:21;40.42;;;17.65;;
21472;SDS011;10898;48.072;11.682;2024-01-10T04:17:23;33.30;;;15.98;;
21472;SDS011;10898;48.072;11.682;2024-01-10T04:19:25;34.10;;;15.65;;
21472;SDS011;10898;48.072;11.682;2024-01-10T04:21:27;32.05;;;16.20;;
21472;SDS011;10898;48.072;11.682;2024-01-10T04:23:29;35.55;;;17.00;;
21472;SDS011;10898;48.072;11.682;2024-01-10T04:25:32;34.35;;;15.30;;
21472;SDS011;10898;48.072;11.682;2024-01-10T04:27:33;30.40;;;16.55;;
21472;SDS011;10898;48.072;11.682;2024-01-10T04:29:35;34.47;;;15.95;;
21472;SDS011;10898;48.072;11.682;2024-01-10T04:31:37;29.98;;;15.70;;
21472;SDS011;10898;48.072;11.682;2024-01-10T04:33:40;33.40;;;16.02;;
21472;SDS011;10898;48.072;11.682;2024-01-10T04:35:41;32.30;;;16.13;;
21472;SDS011;10898;48.072;11.682;2024-01-10T04:37:43;35.03;;;16.63;;
21472;SDS011;10898;48.072;11.682;2024-01-10T04:39:45;35.83;;;15.02;;
21472;SDS011;10898;48.072;11.682;2024-01-10T04:41:47;32.42;;;16.17;;
21472;SDS011;10898;48.072;11.682;2024-01-10T04:43:49;34.83;;;16.60;;
21472;SDS011;10898;48.072;11.682;2024-01-10T04:45:51;34.50;;;15.68;;
21472;SDS011;10898;48.072;11.682;2024-01-10T04:47:53;35.60;;;16.85;;
21472;SDS011;10898;48.072;11.682;2024-01-10T04:49:55;27.30;;;13.93;;
21472;SDS011;10898;48.072;11.682;2024-01-10T04:51:56;35.47;;;14.57;;
21472;SDS011;10898;48.072;11.682;2024-01-10T04:53:58;26.58;;;13.90;;
21472;SDS011;10898;48.072;11.682;2024-01-10T04:56:00;35.83;;;16.63;;
21472;SDS011;10898;48.072;11.682;2024-01-10T04:58:02;33.63;;;15.77;;
21472;SDS011;10898;48.072;11.682;2024-01-10T05:00:04;32.30;;;15.98;;
21472;SDS011;10898;48.072;11.682;2024-01-10T05:02:08;32.47;;;15.32;;
21472;SDS011;10898;48.072;11.682;2024-01-10T05:04:10;33.58;;;16.65;;
21472;SDS011;10898;48.072;11.682;2024-01-10T05:06:11;33.60;;;16.33;;
21472;SDS011;10898;48.072;11.682;2024-01-10T05:08:14;31.67;;;14.73;;
21472;SDS011;10898;48.072;11.682;2024-01-10T05:10:15;30.23;;;15.50;;
21472;SDS011;10898;48.072;11.682;2024-01-10T05:12:17;33.20;;;16.60;;
21472;SDS011;10898;48.072;11.682;2024-01-10T05:14:19;32.63;;;15.95;;
21472;SDS011;10898;48.072;11.682;2024-01-10T05:16:21;34.15;;;17.55;;
21472;SDS011;10898;48.072;11.682;2024-01-10T05:18:23;31.05;;;15.65;;
21472;SDS011;10898;48.072;11.682;2024-01-10T05:20:25;33.40;;;15.20;;
21472;SDS011;10898;48.072;11.682;2024-01-10T05:22:26;31.55;;;15.25;;
21472;SDS011;10898;48.072;11.682;2024-01-10T05:24:28;29.83;;;14.55;;
21472;SDS011;10898;48.072;11.682;2024-01-10T05:26:30;30.55;;;15.68;;
21472;SDS011;10898;48.072;11.682;2024-01-10T05:28:32;27.85;;;14.55;;
21472;SDS011;10898;48.072;11.682;2024-01-10T05:30:34;34.15;;;15.85;;
21472;SDS011;10898;48.072;11.682;2024-01-10T05:32:36;32.05;;;15.57;;
21472;SDS011;10898;48.072;11.682;2024-01-10T05:34:38;37.30;;;15.27;;
21472;SDS011;10898;48.072;11.682;2024-01-10T05:36:40;35.13;;;16.75;;
21472;SDS011;10898;48.072;11.682;2024-01-10T05:38:42;33.28;;;15.27;;
21472;SDS011;10898;48.072;11.682;2024-01-10T05:40:43;39.10;;;16.67;;
21472;SDS011;10898;48.072;11.682;2024-01-10T05:42:45;35.63;;;16.73;;
21472;SDS011;10898;48.072;11.682;2024-01-10T05:44:47;31.33;;;15.75;;
21472;SDS011;10898;48.072;11.682;2024-01-10T05:46:49;32.53;;;15.43;;
21472;SDS011;10898;48.072;11.682;2024-01-10T05:48:51;36.65;;;16.33;;
21472;SDS011;10898;48.072;11.682;2024-01-10T05:50:53;37.33;;;17.15;;
21472;SDS011;10898;48.072;11.682;2024-01-10T05:52:55;32.38;;;15.80;;
21472;SDS011;10898;48.072;11.682;2024-01-10T05:54:57;36.22;;;16.75;;
21472;SDS011;10898;48.072;11.682;2024-01-10T05:57:00;36.63;;;17.00;;
21472;SDS011;10898;48.072;11.682;2024-01-10T05:59:02;33.55;;;17.23;;
21472;SDS011;10898;48.072;11.682;2024-01-10T06:01:04;37.33;;;16.85;;
21472;SDS011;10898;48.072;11.682;2024-01-10T06:03:06;36.38;;;16.88;;
21472;SDS011;10898;48.072;11.682;2024-01-10T06:05:11;35.13;;;16.23;;
21472;SDS011;10898;48.072;11.682;2024-01-10T06:09:15;33.08;;;16.13;;
21472;SDS011;10898;48.072;11.682;2024-01-10T06:11:23;32.65;;;15.55;;
21472;SDS011;10898;48.072;11.682;2024-01-10T06:13:25;31.63;;;15.63;;
21472;SDS011;10898;48.072;11.682;2024-01-10T06:15:35;36.47;;;16.65;;
21472;SDS011;10898;48.072;11.682;2024-01-10T06:17:36;36.67;;;17.30;;
21472;SDS011;10898;48.072;11.682;2024-01-10T06:19:39;37.45;;;18.42;;
21472;SDS011;10898;48.072;11.682;2024-01-10T06:21:41;36.13;;;16.92;;
21472;SDS011;10898;48.072;11.682;2024-01-10T06:23:43;31.98;;;15.90;;
21472;SDS011;10898;48.072;11.682;2024-01-10T06:25:45;37.20;;;16.13;;
21472;SDS011;10898;48.072;11.682;2024-01-10T06:27:47;37.83;;;17.10;;
21472;SDS011;10898;48.072;11.682;2024-01-10T06:29:48;36.28;;;17.48;;
21472;SDS011;10898;48.072;11.682;2024-01-10T06:31:50;34.83;;;16.52;;
21472;SDS011;10898;48.072;11.682;2024-01-10T06:33:52;36.85;;;18.35;;
21472;SDS011;10898;48.072;11.682;2024-01-10T06:35:54;35.42;;;17.70;;
21472;SDS011;10898;48.072;11.682;2024-01-10T06:37:56;40.45;;;18.05;;
21472;SDS011;10898;48.072;11.682;2024-01-10T06:39:58;39.25;;;17.88;;
21472;SDS011;10898;48.072;11.682;2024-01-10T06:42:00;38.90;;;17.55;;
21472;SDS011;10898;48.072;11.682;2024-01-10T06:44:02;34.85;;;16.52;;
21472;SDS011;10898;48.072;11.682;2024-01-10T06:46:05;38.20;;;17.83;;
21472;SDS011;10898;48.072;11.682;2024-01-10T06:48:07;36.90;;;16.73;;
21472;SDS011;10898;48.072;11.682;2024-01-10T06:52:11;38.80;;;16.73;;
21472;SDS011;10898;48.072;11.682;2024-01-10T06:54:14;42.88;;;17.98;;
21472;SDS011;10898;48.072;11.682;2024-01-10T06:56:15;34.30;;;16.60;;
21472;SDS011;10898;48.072;11.682;2024-01-10T06:58:17;38.22;;;17.58;;
21472;SDS011;10898;48.072;11.682;2024-01-10T07:00:20;43.78;;;19.55;;
21472;SDS011;10898;48.072;11.682;2024-01-10T07:02:22;36.78;;;18.52;;
21472;SDS011;10898;48.072;11.682;2024-01-10T07:04:24;37.15;;;17.17;;
21472;SDS011;10898;48.072;11.682;2024-01-10T07:06:27;35.97;;;17.83;;
21472;SDS011;10898;48.072;11.682;2024-01-10T07:08:29;38.83;;;17.95;;
21472;SDS011;10898;48.072;11.682;2024-01-10T07:10:32;37.63;;;18.33;;
21472;SDS011;10898;48.072;11.682;2024-01-10T07:12:33;43.30;;;19.98;;
21472;SDS011;10898;48.072;11.682;2024-01-10T07:14:36;39.03;;;18.60;;
21472;SDS011;10898;48.072;11.682;2024-01-10T07:16:37;39.70;;;19.35;;
21472;SDS011;10898;48.072;11.682;2024-01-10T07:18:43;35.40;;;17.35;;
21472;SDS011;10898;48.072;11.682;2024-01-10T07:20:46;38.75;;;18.85;;
21472;SDS011;10898;48.072;11.682;2024-01-10T07:22:48;43.13;;;20.52;;
21472;SDS011;10898;48.072;11.682;2024-01-10T07:26:52;42.87;;;18.60;;
21472;SDS011;10898;48.072;11.682;2024-01-10T07:28:54;45.08;;;19.67;;
21472;SDS011;10898;48.072;11.682;2024-01-10T07:30:56;38.40;;;18.15;;
21472;SDS011;10898;48.072;11.682;2024-01-10T07:32:58;39.15;;;18.80;;
21472;SDS011;10898;48.072;11.682;2024-01-10T07:35:00;37.40;;;17.15;;
21472;SDS011;10898;48.072;11.682;2024-01-10T07:37:03;43.78;;;20.10;;
21472;SDS011;10898;48.072;11.682;2024-01-10T07:39:04;39.60;;;18.77;;
21472;SDS011;10898;48.072;11.682;2024-01-10T07:41:06;42.03;;;19.23;;
21472;SDS011;10898;48.072;11.682;2024-01-10T07:43:09;44.78;;;19.83;;
21472;SDS011;10898;48.072;11.682;2024-01-10T07:45:12;37.22;;;17.17;;
21472;SDS011;10898;48.072;11.682;2024-01-10T07:47:14;40.35;;;18.95;;
21472;SDS011;10898;48.072;11.682;2024-01-10T07:49:16;39.88;;;20.02;;
21472;SDS011;10898;48.072;11.682;2024-01-10T07:51:18;42.30;;;20.92;;
21472;SDS011;10898;48.072;11.682;2024-01-10T07:53:20;38.03;;;19.73;;
21472;SDS011;10898;48.072;11.682;2024-01-10T07:55:23;41.28;;;21.55;;
21472;SDS011;10898;48.072;11.682;2024-01-10T07:57:24;37.42;;;17.80;;
21472;SDS011;10898;48.072;11.682;2024-01-10T07:59:26;38.75;;;18.77;;
21472;SDS011;10898;48.072;11.682;2024-01-10T08:01:28;38.90;;;18.77;;
21472;SDS011;10898;48.072;11.682;2024-01-10T08:03:30;37.70;;;18.75;;
21472;SDS011;10898;48.072;11.682;2024-01-10T08:05:32;39.30;;;19.60;;
21472;SDS011;10898;48.072;11.682;2024-01-10T08:07:35;37.53;;;17.05;;
21472;SDS011;10898;48.072;11.682;2024-01-10T08:09:40;41.78;;;18.90;;
21472;SDS011;10898;48.072;11.682;2024-01-10T08:11:42;38.67;;;18.23;;
21472;SDS011;10898;48.072;11.682;2024-01-10T08:13:44;43.13;;;18.95;;
21472;SDS011;10898;48.072;11.682;2024-01-10T08:15:46;42.55;;;20.15;;
21472;SDS011;10898;48.072;11.682;2024-01-10T08:17:48;39.50;;;18.67;;
21472;SDS011;10898;48.072;11.682;2024-01-10T08:19:50;46.08;;;19.88;;
21472;SDS011;10898;48.072;11.682;2024-01-10T08:21:53;39.35;;;18.92;;
21472;SDS011;10898;48.072;11.682;2024-01-10T08:23:55;45.92;;;21.55;;
21472;SDS011;10898;48.072;11.682;2024-01-10T08:25:57;44.42;;;20.15;;
21472;SDS011;10898;48.072;11.682;2024-01-10T08:27:59;43.42;;;19.83;;
21472;SDS011;10898;48.072;11.682;2024-01-10T08:30:00;47.65;;;20.98;;
21472;SDS011;10898;48.072;11.682;2024-01-10T08:32:06;44.08;;;20.50;;
21472;SDS011;10898;48.072;11.682;2024-01-10T08:34:08;44.33;;;19.42;;
21472;SDS011;10898;48.072;11.682;2024-01-10T08:36:09;36.97;;;18.33;;
21472;SDS011;10898;48.072;11.682;2024-01-10T08:38:11;44.65;;;20.95;;
21472;SDS011;10898;48.072;11.682;2024-01-10T08:40:13;42.10;;;21.23;;
21472;SDS011;10898;48.072;11.682;2024-01-10T08:42:18;45.40;;;21.05;;
21472;SDS011;10898;48.072;11.682;2024-01-10T08:44:21;44.17;;;20.83;;
21472;SDS011;10898;48.072;11.682;2024-01-10T08:46:23;47.40;;;22.48;;
21472;SDS011;10898;48.072;11.682;2024-01-10T08:48:25;42.90;;;21.02;;
21472;SDS011;10898;48.072;11.682;2024-01-10T08:50:27;46.47;;;21.73;;
21472;SDS011;10898;48.072;11.682;2024-01-10T08:52:29;42.88;;;21.45;;
21472;SDS011;10898;48.072;11.682;2024-01-10T08:56:33;47.70;;;20.30;;
21472;SDS011;10898;48.072;11.682;2024-01-10T08:58:36;43.85;;;21.27;;
21472;SDS011;10898;48.072;11.682;2024-01-10T09:02:39;44.10;;;19.77;;
21472;SDS011;10898;48.072;11.682;2024-01-10T09:04:41;46.72;;;20.73;;
21472;SDS011;10898;48.072;11.682;2024-01-10T09:06:43;47.03;;;21.50;;
21472;SDS011;10898;48.072;11.682;2024-01-10T09:08:45;45.13;;;22.38;;
21472;SDS011;10898;48.072;11.682;2024-01-10T09:10:47;40.75;;;20.92;;
21472;SDS011;10898;48.072;11.682;2024-01-10T09:12:50;47.53;;;22.70;;
21472;SDS011;10898;48.072;11.682;2024-01-10T09:14:52;45.17;;;22.05;;
21472;SDS011;10898;48.072;11.682;2024-01-10T09:16:54;43.25;;;19.77;;
21472;SDS011;10898;48.072;11.682;2024-01-10T09:18:56;43.63;;;20.50;;
21472;SDS011;10898;48.072;11.682;2024-01-10T09:21:01;47.33;;;22.08;;
21472;SDS011;10898;48.072;11.682;2024-01-10T09:23:05;47.20;;;21.65;;
21472;SDS011;10898;48.072;11.682;2024-01-10T09:25:07;42.33;;;21.08;;
21472;SDS011;10898;48.072;11.682;2024-01-10T09:27:10;41.13;;;20.63;;
21472;SDS011;10898;48.072;11.682;2024-01-10T09:31:14;44.20;;;21.58;;
21472;SDS011;10898;48.072;11.682;2024-01-10T09:33:16;39.58;;;21.02;;
21472;SDS011;10898;48.072;11.682;2024-01-10T09:35:18;46.30;;;22.00;;
21472;SDS011;10898;48.072;11.682;2024-01-10T09:37:20;40.38;;;20.05;;
21472;SDS011;10898;48.072;11.682;2024-01-10T09:39:22;39.92;;;19.50;;
21472;SDS011;10898;48.072;11.682;2024-01-10T09:41:24;42.65;;;19.92;;
21472;SDS011;10898;48.072;11.682;2024-01-10T09:43:30;44.47;;;21.85;;
21472;SDS011;10898;48.072;11.682;2024-01-10T09:45:35;45.33;;;20.88;;
21472;SDS011;10898;48.072;11.682;2024-01-10T09:47:37;42.53;;;21.92;;
21472;SDS011;10898;48.072;11.682;2024-01-10T09:49:41;49.20;;;22.95;;
21472;SDS011;10898;48.072;11.682;2024-01-10T09:51:46;42.47;;;21.52;;
21472;SDS011;10898;48.072;11.682;2024-01-10T09:53:50;38.78;;;19.65;;
21472;SDS011;10898;48.072;11.682;2024-01-10T09:55:55;45.15;;;21.38;;
21472;SDS011;10898;48.072;11.682;2024-01-10T09:58:05;44.78;;;22.10;;
21472;SDS011;10898;48.072;11.682;2024-01-10T10:00:10;39.28;;;19.75;;
21472;SDS011;10898;48.072;11.682;2024-01-10T10:02:13;38.95;;;19.25;;
21472;SDS011;10898;48.072;11.682;2024-01-10T10:04:17;40.28;;;20.33;;
21472;SDS011;10898;48.072;11.682;2024-01-10T10:06:22;40.40;;;19.83;;
21472;SDS011;10898;48.072;11.682;2024-01-10T10:08:24;39.92;;;19.10;;
21472;SDS011;10898;48.072;11.682;2024-01-10T10:12:41;42.50;;;19.15;;
21472;SDS011;10898;48.072;11.682;2024-01-10T10:14:44;42.05;;;20.88;;
21472;SDS011;10898;48.072;11.682;2024-01-10T10:16:46;43.47;;;20.95;;
21472;SDS011;10898;48.072;11.682;2024-01-10T10:18:47;44.50;;;21.50;;
21472;SDS011;10898;48.072;11.682;2024-01-10T10:21:11;44.90;;;20.30;;
21472;SDS011;10898;48.072;11.682;2024-01-10T10:23:15;40.80;;;21.20;;
21472;SDS011;10898;48.072;11.682;2024-01-10T10:25:18;46.10;;;22.75;;
21472;SDS011;10898;48.072;11.682;2024-01-10T10:27:20;43.75;;;21.05;;
21472;SDS011;10898;48.072;11.682;2024-01-10T10:29:25;42.60;;;21.92;;
21472;SDS011;10898;48.072;11.682;2024-01-10T10:31:27;38.60;;;20.13;;
21472;SDS011;10898;48.072;11.682;2024-01-10T10:33:31;41.45;;;20.48;;
21472;SDS011;10898;48.072;11.682;2024-01-10T10:35:34;41.08;;;20.67;;
21472;SDS011;10898;48.072;11.682;2024-01-10T10:37:42;39.67;;;20.30;;
21472;SDS011;10898;48.072;11.682;2024-01-10T10:39:44;44.65;;;22.35;;
21472;SDS011;10898;48.072;11.682;2024-01-10T10:41:46;42.67;;;21.48;;
21472;SDS011;10898;48.072;11.682;2024-01-10T10:43:49;37.67;;;19.90;;
21472;SDS011;10898;48.072;11.682;2024-01-10T10:45:55;38.42;;;19.77;;
21472;SDS011;10898;48.072;11.682;2024-01-10T10:47:59;42.72;;;20.83;;
21472;SDS011;10898;48.072;11.682;2024-01-10T10:50:02;44.75;;;22.20;;
21472;SDS011;10898;48.072;11.682;2024-01-10T10:52:05;49.35;;;22.92;;
21472;SDS011;10898;48.072;11.682;2024-01-10T10:54:08;41.63;;;20.95;;
21472;SDS011;10898;48.072;11.682;2024-01-10T10:56:11;45.08;;;22.23;;
21472;SDS011;10898;48.072;11.682;2024-01-10T10:58:13;45.10;;;21.55;;
21472;SDS011;10898;48.072;11.682;2024-01-10T11:00:19;41.65;;;20.52;;
21472;SDS011;10898;48.072;11.682;2024-01-10T11:02:23;38.20;;;19.33;;
21472;SDS011;10898;48.072;11.682;2024-01-10T11:04:30;40.25;;;19.83;;
21472;SDS011;10898;48.072;11.682;2024-01-10T11:06:33;43.30;;;21.95;;
21472;SDS011;10898;48.072;11.682;2024-01-10T11:10:58;45.03;;;20.35;;
21472;SDS011;10898;48.072;11.682;2024-01-10T11:13:50;37.60;;;18.52;;
21472;SDS011;10898;48.072;11.682;2024-01-10T11:18:02;42.47;;;20.40;;
21472;SDS011;10898;48.072;11.682;2024-01-10T11:20:31;39.60;;;19.55;;
21472;SDS011;10898;48.072;11.682;2024-01-10T11:25:35;42.67;;;21.05;;
21472;SDS011;10898;48.072;11.682;2024-01-10T11:27:38;40.40;;;21.00;;
21472;SDS011;10898;48.072;11.682;2024-01-10T11:29:40;40.50;;;20.23;;
21472;SDS011;10898;48.072;11.682;2024-01-10T11:31:43;40.63;;;20.77;;
21472;SDS011;10898;48.072;11.682;2024-01-10T11:33:52;39.83;;;19.33;;
21472;SDS011;10898;48.072;11.682;2024-01-10T11:36:07;39.90;;;19.80;;
21472;SDS011;10898;48.072;11.682;2024-01-10T11:38:13;39.70;;;19.38;;
21472;SDS011;10898;48.072;11.682;2024-01-10T11:40:16;42.90;;;22.30;;
21472;SDS011;10898;48.072;11.682;2024-01-10T11:42:45;40.15;;;20.25;;
21472;SDS011;10898;48.072;11.682;2024-01-10T11:44:48;38.45;;;19.80;;
21472;SDS011;10898;48.072;11.682;2024-01-10T11:46:52;38.80;;;20.15;;
21472;SDS011;10898;48.072;11.682;2024-01-10T11:48:56;49.13;;;23.08;;
21472;SDS011;10898;48.072;11.682;2024-01-10T11:50:58;41.22;;;21.17;;
21472;SDS011;10898;48.072;11.682;2024-01-10T11:53:02;41.70;;;21.15;;
21472;SDS011;10898;48.072;11.682;2024-01-10T11:55:04;41.40;;;21.30;;
21472;SDS011;10898;48.072;11.682;2024-01-10T11:59:13;43.03;;;20.35;;
21472;SDS011;10898;48.072;11.682;2024-01-10T12:01:18;44.72;;;20.98;;
21472;SDS011;10898;48.072;11.682;2024-01-10T12:05:22;34.78;;;17.10;;
21472;SDS011;10898;48.072;11.682;2024-01-10T12:07:26;42.60;;;21.77;;
21472;SDS011;10898;48.072;11.682;2024-01-10T12:09:29;40.78;;;19.52;;
21472;SDS011;10898;48.072;11.682;2024-01-10T12:11:33;50.13;;;24.05;;
21472;SDS011;10898;48.072;11.682;2024-01-10T12:13:35;40.25;;;21.55;;
21472;SDS011;10898;48.072;11.682;2024-01-10T12:15:37;46.80;;;21.65;;
21472;SDS011;10898;48.072;11.682;2024-01-10T12:17:39;45.00;;;21.02;;
21472;SDS011;10898;48.072;11.682;2024-01-10T12:19:41;42.13;;;21.00;;
21472;SDS011;10898;48.072;11.682;2024-01-10T12:21:50;43.38;;;21.08;;
21472;SDS011;10898;48.072;11.682;2024-01-10T12:23:53;44.53;;;22.20;;